Time;durP1;ratioP1;P1;durP2;ratioP2;P2;SDS_P1;SDS_P2;PMS_P1;PMS_P2;Temp;Humidity;BMP_temperature;BMP_pressure;BME280_temperature;BME280_humidity;BME280_pressure;Samples;Min_cycle;Max_cycle;Signal;HPM_P1;HPM_P2
2021/04/02 00:00:29;;;;;;;9.18;4.80;;;;;;;18.91;61.03;102920.66;5021392;28;20140;-66
2021/04/02 00:02:54;;;;;;;11.43;5.03;;;;;;;18.94;60.80;102924.88;5034142;28;20095;-65
2021/04/02 00:05:20;;;;;;;8.27;4.18;;;;;;;18.92;61.06;102914.38;5044971;28;20029;-67
2021/04/02 00:07:47;;;;;;;8.35;4.78;;;;;;;18.92;60.56;102917.03;5043900;28;20029;-66
2021/04/02 00:10:17;;;;;;;9.60;4.53;;;;;;;18.92;60.83;102919.69;5046925;28;20040;-66
2021/04/02 00:12:43;;;;;;;8.95;4.40;;;;;;;18.91;60.97;102925.97;5043716;28;20534;-66
2021/04/02 00:15:15;;;;;;;10.15;5.10;;;;;;;18.91;60.84;102920.66;5046821;28;20393;-67
2021/04/02 00:17:41;;;;;;;10.30;4.28;;;;;;;18.91;60.74;102917.16;5036801;28;20127;-66
2021/04/02 00:20:09;;;;;;;10.15;4.60;;;;;;;18.90;60.93;102924.31;5047154;28;20029;-66
2021/04/02 00:22:34;;;;;;;8.48;4.63;;;;;;;18.90;60.74;102926.97;5025371;28;20037;-65
2021/04/02 00:25:00;;;;;;;8.07;4.68;;;;;;;18.89;60.81;102930.59;5046971;28;20854;-66
2021/04/02 00:27:26;;;;;;;8.75;4.30;;;;;;;18.89;60.75;102927.09;5047810;28;20065;-66
2021/04/02 00:29:51;;;;;;;9.85;4.53;;;;;;;18.90;60.69;102926.13;5010285;28;20037;-66
2021/04/02 00:32:17;;;;;;;8.15;4.25;;;;;;;18.89;60.76;102930.59;5029109;28;20037;-65
2021/04/02 00:34:42;;;;;;;9.48;4.80;;;;;;;18.88;60.59;102928.94;5041835;28;20037;-66
2021/04/02 00:37:08;;;;;;;6.88;3.95;;;;;;;18.87;60.91;102931.72;5029520;28;20434;-65
2021/04/02 00:39:33;;;;;;;9.30;4.63;;;;;;;18.87;60.60;102935.22;5044962;28;20033;-68
2021/04/02 00:41:59;;;;;;;8.48;4.32;;;;;;;18.87;60.31;102940.56;5033271;28;20051;-66
2021/04/02 00:44:24;;;;;;;9.02;4.45;;;;;;;18.87;60.47;102937.91;5028378;28;20139;-66
2021/04/02 00:46:49;;;;;;;9.13;4.53;;;;;;;18.87;60.47;102937.91;5010734;28;20128;-65
2021/04/02 00:49:15;;;;;;;8.32;4.10;;;;;;;18.85;60.61;102938.03;5046207;28;20148;-65
2021/04/02 00:51:40;;;;;;;8.82;4.25;;;;;;;18.85;60.62;102937.19;5045505;28;20777;-66
2021/04/02 00:54:07;;;;;;;8.63;3.97;;;;;;;18.85;60.53;102938.03;5012161;28;20059;-66
2021/04/02 00:56:33;;;;;;;8.23;4.47;;;;;;;18.83;60.48;102937.34;5031543;28;20030;-68
2021/04/02 00:58:59;;;;;;;8.05;4.32;;;;;;;18.85;60.53;102942.50;5015967;28;20049;-66
2021/04/02 01:01:24;;;;;;;9.52;4.38;;;;;;;18.84;60.61;102936.34;5020344;28;20329;-65
2021/04/02 01:03:52;;;;;;;6.50;3.92;;;;;;;18.83;60.45;102942.66;5011255;28;20068;-66
2021/04/02 01:06:25;;;;;;;7.75;4.25;;;;;;;18.82;60.56;102940.97;5026197;28;20520;-66
2021/04/02 01:08:50;;;;;;;7.40;4.22;;;;;;;18.83;60.46;102939.16;5023652;28;20139;-66
2021/04/02 01:11:18;;;;;;;9.18;4.40;;;;;;;18.82;60.55;102933.00;5034257;28;20053;-66
2021/04/02 01:13:46;;;;;;;7.10;3.78;;;;;;;18.83;60.49;102934.69;5043754;28;20047;-66
2021/04/02 01:16:15;;;;;;;8.27;4.00;;;;;;;18.82;60.40;102938.31;5037721;28;20170;-68
2021/04/02 01:19:00;;;;;;;7.68;4.03;;;;;;;18.79;60.55;102943.94;5040230;28;20881;-66
2021/04/02 01:21:42;;;;;;;7.97;4.20;;;;;;;18.81;60.57;102946.44;5023477;28;20044;-66
2021/04/02 01:24:22;;;;;;;7.07;4.45;;;;;;;18.78;60.53;102947.56;5029224;28;20120;-66
2021/04/02 01:27:15;;;;;;;8.27;4.50;;;;;;;18.79;60.78;102945.75;5043522;28;20132;-66
2021/04/02 01:29:47;;;;;;;8.70;4.15;;;;;;;18.78;60.51;102944.06;5041682;28;20033;-66
2021/04/02 01:32:17;;;;;;;8.55;3.72;;;;;;;18.80;60.50;102945.59;5044359;28;20076;-66
2021/04/02 01:34:49;;;;;;;7.15;4.20;;;;;;;18.78;60.47;102946.72;5043567;28;20364;-66
2021/04/02 01:37:37;;;;;;;7.70;3.78;;;;;;;18.75;60.67;102950.47;5049317;28;20059;-66
2021/04/02 01:40:08;;;;;;;8.23;4.30;;;;;;;18.78;60.79;102950.22;5032126;28;20035;-66
2021/04/02 01:42:35;;;;;;;6.20;3.60;;;;;;;18.78;60.28;102952.03;5029268;28;20040;-66
2021/04/02 01:45:04;;;;;;;7.20;4.20;;;;;;;18.76;60.47;102938.88;5030720;28;20044;-67
2021/04/02 01:47:31;;;;;;;7.50;3.92;;;;;;;18.76;60.63;102946.00;5043600;28;20029;-67
2021/04/02 01:49:57;;;;;;;6.95;3.80;;;;;;;18.76;60.66;102944.19;5031592;28;20036;-66
2021/04/02 01:52:25;;;;;;;6.35;3.58;;;;;;;18.76;60.49;102946.00;5031981;28;20032;-67
2021/04/02 01:54:51;;;;;;;8.15;4.10;;;;;;;18.77;60.73;102947.69;5046368;28;20079;-66
2021/04/02 01:57:18;;;;;;;7.45;4.03;;;;;;;18.76;60.54;102951.31;5042685;28;20033;-66
2021/04/02 01:59:48;;;;;;;6.90;3.75;;;;;;;18.76;60.39;102948.66;5046419;28;20036;-66
2021/04/02 02:02:14;;;;;;;6.60;3.75;;;;;;;18.76;60.46;102949.50;5014789;28;20056;-66
2021/04/02 02:04:41;;;;;;;6.88;3.55;;;;;;;18.76;60.73;102946.00;5026709;28;20056;-66
2021/04/02 02:07:07;;;;;;;6.15;3.65;;;;;;;18.75;60.75;102949.63;5031885;28;20087;-66
2021/04/02 02:09:40;;;;;;;7.00;3.55;;;;;;;18.74;60.35;102943.47;5013146;28;20440;-66
2021/04/02 02:12:10;;;;;;;7.45;3.63;;;;;;;18.75;60.65;102952.31;5036803;28;20045;-66
2021/04/02 02:14:38;;;;;;;7.45;4.00;;;;;;;18.74;60.72;102948.81;5020232;28;20033;-67
2021/04/02 02:17:09;;;;;;;7.95;3.78;;;;;;;18.73;60.32;102947.13;5047888;28;20045;-66
2021/04/02 02:19:38;;;;;;;8.00;3.97;;;;;;;18.73;60.71;102946.28;5020975;28;20034;-66
2021/04/02 02:22:10;;;;;;;6.30;3.33;;;;;;;18.73;60.61;102948.94;5015646;28;20120;-66
2021/04/02 02:24:36;;;;;;;7.10;3.72;;;;;;;18.73;60.18;102948.94;5046978;28;20041;-66
2021/04/02 02:27:05;;;;;;;8.73;3.78;;;;;;;18.72;60.58;102947.25;5050085;28;20033;-66
2021/04/02 02:29:31;;;;;;;7.53;3.28;;;;;;;18.73;60.28;102946.28;5045745;28;20087;-66
2021/04/02 02:31:57;;;;;;;9.00;3.60;;;;;;;18.73;60.20;102940.97;5025903;28;20499;-66
2021/04/02 02:34:22;;;;;;;6.82;3.33;;;;;;;18.73;60.44;102940.97;5043022;28;20115;-66
2021/04/02 02:36:48;;;;;;;5.20;3.35;;;;;;;18.71;60.57;102942.94;5019089;28;20075;-66
2021/04/02 02:39:15;;;;;;;6.22;3.47;;;;;;;18.73;60.53;102940.97;5022114;28;20037;-66
2021/04/02 02:41:42;;;;;;;5.85;3.25;;;;;;;18.72;60.62;102939.28;5041586;28;20040;-66
2021/04/02 02:44:08;;;;;;;6.20;3.13;;;;;;;18.72;60.67;102941.94;5042313;28;20056;-66
2021/04/02 02:46:34;;;;;;;6.22;3.20;;;;;;;18.71;60.41;102945.59;5040897;28;20067;-66
2021/04/02 02:49:04;;;;;;;6.68;3.38;;;;;;;18.71;60.64;102940.28;5037996;28;20061;-66
2021/04/02 02:51:32;;;;;;;6.35;3.40;;;;;;;18.70;60.57;102939.44;5028615;28;20090;-66
2021/04/02 02:54:01;;;;;;;5.47;2.92;;;;;;;18.70;60.31;102943.91;5042154;28;20048;-69
2021/04/02 02:56:28;;;;;;;6.43;3.20;;;;;;;18.70;60.21;102941.25;5029646;28;20064;-66
2021/04/02 02:58:55;;;;;;;7.30;3.45;;;;;;;18.70;60.18;102941.25;5030253;28;20040;-66
2021/04/02 03:01:23;;;;;;;6.68;3.38;;;;;;;18.70;60.42;102949.22;5045700;28;20049;-68
2021/04/02 03:03:52;;;;;;;5.82;2.90;;;;;;;18.69;60.29;102944.88;5012772;28;20037;-66
2021/04/02 03:06:20;;;;;;;5.70;3.03;;;;;;;18.69;60.08;102950.22;5047161;28;21286;-66
2021/04/02 03:08:49;;;;;;;4.47;3.10;;;;;;;18.69;60.45;102952.88;5044674;28;20045;-66
2021/04/02 03:11:18;;;;;;;8.73;3.95;;;;;;;18.69;60.31;102947.56;5019488;28;20028;-66
2021/04/02 03:13:44;;;;;;;5.70;3.60;;;;;;;18.68;60.42;102951.19;5009527;28;20033;-66
2021/04/02 03:16:11;;;;;;;4.75;3.03;;;;;;;18.67;60.08;102950.34;5024660;28;20510;-68
2021/04/02 03:18:38;;;;;;;4.63;2.90;;;;;;;18.67;60.47;102944.19;5023846;28;20124;-66
2021/04/02 03:21:06;;;;;;;5.78;3.05;;;;;;;18.67;60.34;102944.19;5023426;28;20032;-66
2021/04/02 03:23:32;;;;;;;5.53;3.25;;;;;;;18.67;60.49;102953.00;5046174;28;20025;-66
2021/04/02 03:25:58;;;;;;;7.40;3.40;;;;;;;18.67;60.28;102952.16;5046309;28;20037;-66
2021/04/02 03:28:25;;;;;;;6.57;3.15;;;;;;;18.66;60.35;102954.00;5047029;28;20139;-66
2021/04/02 03:30:51;;;;;;;7.63;3.38;;;;;;;18.67;60.35;102945.03;4996519;28;20112;-66
2021/04/02 03:33:22;;;;;;;6.18;2.95;;;;;;;18.64;60.30;102944.47;5021457;28;20056;-66
2021/04/02 03:35:53;;;;;;;5.30;3.00;;;;;;;18.65;60.25;102948.81;5045858;28;20050;-66
2021/04/02 03:38:21;;;;;;;6.15;2.90;;;;;;;18.66;60.41;102948.66;5047255;28;20025;-66
2021/04/02 03:40:50;;;;;;;6.95;3.35;;;;;;;18.65;60.54;102949.66;5046823;28;20107;-66
2021/04/02 03:43:17;;;;;;;5.63;3.38;;;;;;;18.65;60.50;102946.16;5048115;28;20039;-66
2021/04/02 03:45:48;;;;;;;5.47;2.83;;;;;;;18.65;60.19;102943.50;5020241;28;20060;-66
2021/04/02 03:48:15;;;;;;;6.35;3.30;;;;;;;18.65;60.66;102946.16;5048212;28;20048;-67
2021/04/02 03:50:43;;;;;;;6.53;3.30;;;;;;;18.64;60.32;102942.66;5035233;28;20105;-66
2021/04/02 03:53:15;;;;;;;4.65;2.67;;;;;;;18.63;60.24;102938.31;5043877;28;20087;-65
2021/04/02 03:55:44;;;;;;;4.20;2.42;;;;;;;18.63;60.49;102938.31;5044513;28;20058;-67
2021/04/02 03:58:12;;;;;;;5.18;3.03;;;;;;;18.63;60.53;102942.78;5039450;28;20503;-65
2021/04/02 04:00:49;;;;;;;5.60;2.90;;;;;;;18.61;60.51;102953.50;5045078;28;20040;-68
2021/04/02 04:03:17;;;;;;;4.55;2.50;;;;;;;18.62;60.48;102949.03;5042458;28;20037;-66
2021/04/02 04:05:47;;;;;;;6.07;3.00;;;;;;;18.62;60.39;102949.03;5046852;28;20444;-65
2021/04/02 04:08:14;;;;;;;5.50;3.13;;;;;;;18.62;60.12;102946.38;5028854;28;20035;-65
2021/04/02 04:10:41;;;;;;;4.68;2.60;;;;;;;18.62;60.21;102951.69;5045526;28;20025;-65
2021/04/02 04:13:10;;;;;;;4.72;2.70;;;;;;;18.62;60.39;102951.69;5047203;28;20510;-65
2021/04/02 04:15:37;;;;;;;4.55;2.63;;;;;;;18.61;60.27;102956.16;5045491;28;20122;-65
2021/04/02 04:18:05;;;;;;;4.38;2.47;;;;;;;18.60;60.39;102954.50;5030211;28;20045;-66
2021/04/02 04:20:32;;;;;;;4.63;2.67;;;;;;;18.60;60.21;102965.13;5028669;28;20055;-66
2021/04/02 04:22:58;;;;;;;4.15;2.50;;;;;;;18.60;60.38;102964.28;5043772;28;20495;-65
2021/04/02 04:25:25;;;;;;;4.32;2.60;;;;;;;18.60;60.42;102964.28;5046138;28;20055;-65
2021/04/02 04:27:53;;;;;;;5.55;2.70;;;;;;;18.60;60.36;102969.59;5035354;28;20052;-65
2021/04/02 04:30:19;;;;;;;5.75;3.10;;;;;;;18.60;60.33;102964.28;5047950;28;20053;-65
2021/04/02 04:32:45;;;;;;;5.70;2.40;;;;;;;18.59;60.30;102968.75;5044902;28;20029;-65
2021/04/02 04:35:14;;;;;;;4.15;2.45;;;;;;;18.59;60.41;102973.25;5047209;28;20055;-65
2021/04/02 04:37:42;;;;;;;5.07;2.55;;;;;;;18.58;60.41;102977.72;5044136;28;20887;-66
2021/04/02 04:40:09;;;;;;;4.93;2.65;;;;;;;18.58;60.29;102979.53;5019161;28;20449;-65
2021/04/02 04:42:36;;;;;;;4.75;2.55;;;;;;;18.58;60.34;102974.22;5046348;28;20540;-66
2021/04/02 04:45:05;;;;;;;3.60;2.38;;;;;;;18.56;60.09;102985.81;5013606;28;20059;-67
2021/04/02 04:47:31;;;;;;;4.68;2.45;;;;;;;18.56;60.41;102996.47;5045009;28;20492;-66
2021/04/02 04:49:56;;;;;;;4.80;2.55;;;;;;;18.56;60.28;102998.28;5027764;28;20030;-67
2021/04/02 04:52:23;;;;;;;4.00;2.05;;;;;;;18.56;59.99;102993.81;5018271;28;20026;-67
2021/04/02 04:54:52;;;;;;;4.00;2.42;;;;;;;18.55;60.52;102994.78;5026004;28;20045;-65
2021/04/02 04:57:19;;;;;;;4.80;2.40;;;;;;;18.55;60.38;102997.44;5046441;28;20076;-64
2021/04/02 04:59:49;;;;;;;4.85;2.42;;;;;;;18.55;60.19;102999.25;5027145;28;20515;-64
2021/04/02 05:02:17;;;;;;;4.20;2.45;;;;;;;18.55;60.16;103004.56;5045478;28;20403;-65
2021/04/02 05:04:43;;;;;;;3.60;2.38;;;;;;;18.55;59.96;103004.56;5044915;28;20040;-65
2021/04/02 05:07:11;;;;;;;5.50;2.60;;;;;;;18.56;60.00;103006.25;5029706;28;20440;-65
2021/04/02 05:09:38;;;;;;;4.68;2.15;;;;;;;18.55;60.34;103004.56;5048700;28;20044;-66
2021/04/02 05:12:07;;;;;;;4.63;2.38;;;;;;;18.55;60.03;103007.22;5050015;28;20032;-66
2021/04/02 05:14:34;;;;;;;4.28;2.45;;;;;;;18.55;59.93;103015.22;5049133;28;20137;-66
2021/04/02 05:17:01;;;;;;;3.90;2.10;;;;;;;18.54;60.33;103019.69;5032059;28;20533;-66
2021/04/02 05:19:27;;;;;;;4.57;2.40;;;;;;;18.53;60.23;103025.13;5050419;28;20039;-65
2021/04/02 05:21:53;;;;;;;4.13;2.42;;;;;;;18.53;60.03;103025.97;5032318;28;20110;-66
2021/04/02 05:24:20;;;;;;;4.75;2.40;;;;;;;18.53;60.03;103022.47;5031347;28;20032;-65
2021/04/02 05:26:46;;;;;;;3.88;2.53;;;;;;;18.53;60.29;103022.47;5030180;28;20068;-66
2021/04/02 05:29:12;;;;;;;4.18;2.08;;;;;;;18.52;60.09;103026.13;5032928;28;20145;-66
2021/04/02 05:31:37;;;;;;;3.55;1.92;;;;;;;18.51;60.09;103021.78;5032170;28;20048;-66
2021/04/02 05:34:03;;;;;;;5.28;2.30;;;;;;;18.52;60.30;103040.25;5040867;28;20025;-65
2021/04/02 05:36:29;;;;;;;4.15;2.25;;;;;;;18.50;60.04;103052.84;5032748;28;20057;-65
2021/04/02 05:38:54;;;;;;;4.28;2.67;;;;;;;18.50;59.82;103047.53;5029278;28;20098;-65
2021/04/02 05:41:27;;;;;;;4.30;2.33;;;;;;;18.49;60.07;103051.16;5050039;28;20037;-68
2021/04/02 05:43:57;;;;;;;4.20;2.30;;;;;;;18.49;59.91;103053.81;5031335;28;20395;-66
2021/04/02 05:46:25;;;;;;;4.45;2.10;;;;;;;18.51;60.06;103059.00;5015919;28;20368;-66
2021/04/02 05:49:03;;;;;;;4.07;2.28;;;;;;;18.47;60.00;103058.44;5031437;28;20095;-69
2021/04/02 05:51:29;;;;;;;3.70;1.88;;;;;;;18.49;60.27;103056.47;5048990;28;20171;-66
2021/04/02 05:53:56;;;;;;;4.55;2.20;;;;;;;18.49;59.88;103061.78;5031173;28;20037;-66
2021/04/02 05:56:22;;;;;;;4.22;2.50;;;;;;;18.48;60.20;103073.41;5050106;28;20021;-66
2021/04/02 05:58:49;;;;;;;4.78;2.00;;;;;;;18.48;60.21;103068.06;5049545;28;20032;-66
2021/04/02 06:01:15;;;;;;;4.18;1.90;;;;;;;18.49;59.96;103069.75;5013889;28;20034;-66
2021/04/02 06:03:42;;;;;;;3.47;2.03;;;;;;;18.49;59.84;103079.56;5046849;28;20037;-66
2021/04/02 06:06:11;;;;;;;3.65;1.83;;;;;;;18.49;60.23;103084.88;5011247;28;20036;-66
2021/04/02 06:08:37;;;;;;;4.22;2.30;;;;;;;18.48;60.25;103078.72;5031054;28;20063;-66
2021/04/02 06:11:02;;;;;;;4.18;2.05;;;;;;;18.48;59.86;103080.53;5029108;28;20045;-66
2021/04/02 06:13:28;;;;;;;4.88;2.33;;;;;;;18.47;59.94;103085.00;5029552;28;21206;-66
2021/04/02 06:15:55;;;;;;;3.22;1.88;;;;;;;18.47;60.26;103084.16;5050060;28;20078;-66
2021/04/02 06:18:24;;;;;;;5.95;2.40;;;;;;;18.46;59.87;103085.97;5047765;28;20044;-67
2021/04/02 06:20:51;;;;;;;3.53;1.90;;;;;;;18.45;60.09;103089.59;5048931;28;20044;-66
2021/04/02 06:23:20;;;;;;;3.83;1.88;;;;;;;18.47;59.96;103100.09;5048594;28;20064;-66
2021/04/02 06:25:51;;;;;;;4.85;1.88;;;;;;;18.45;59.86;103094.91;5036205;28;20301;-66
2021/04/02 06:28:28;;;;;;;2.65;1.50;;;;;;;18.45;60.20;103099.38;5049266;28;20041;-66
2021/04/02 06:31:05;;;;;;;3.80;1.80;;;;;;;18.45;59.88;103094.06;5049301;28;20083;-66
2021/04/02 06:33:34;;;;;;;3.38;1.70;;;;;;;18.44;60.23;103105.66;5031357;28;20039;-65
2021/04/02 06:36:00;;;;;;;4.45;2.05;;;;;;;18.44;60.19;103110.97;5034403;28;20044;-65
2021/04/02 06:38:32;;;;;;;4.80;2.17;;;;;;;18.43;59.75;103114.63;5029731;28;20106;-66
2021/04/02 06:41:04;;;;;;;4.57;2.10;;;;;;;18.42;59.92;103104.97;5029960;28;20124;-66
2021/04/02 06:43:41;;;;;;;4.10;2.05;;;;;;;18.43;60.22;103114.63;5048573;28;20109;-66
2021/04/02 06:46:34;;;;;;;4.03;1.80;;;;;;;18.40;60.17;103117.53;5029195;28;20464;-67
2021/04/02 06:49:13;;;;;;;6.38;2.10;;;;;;;18.42;59.69;103128.88;5043579;28;20389;-65
2021/04/02 06:51:41;;;;;;;3.30;1.55;;;;;;;18.42;59.68;103127.06;5031074;28;20364;-67
2021/04/02 06:54:07;;;;;;;3.97;1.77;;;;;;;18.42;59.81;103124.41;5046525;28;20032;-65
2021/04/02 06:56:34;;;;;;;4.63;1.92;;;;;;;18.42;59.68;103136.84;5012749;28;20463;-65
2021/04/02 06:59:01;;;;;;;5.75;1.83;;;;;;;18.42;59.63;103136.84;5046415;28;20035;-65
2021/04/02 07:01:32;;;;;;;5.07;1.77;;;;;;;18.41;59.81;103143.16;5029043;28;20423;-66
2021/04/02 07:03:59;;;;;;;3.30;1.67;;;;;;;18.41;59.85;103146.63;5045621;28;20033;-66
2021/04/02 07:06:26;;;;;;;7.05;1.80;;;;;;;18.41;60.14;103141.31;5027042;28;20041;-65
2021/04/02 07:08:52;;;;;;;9.00;2.22;;;;;;;18.41;60.14;103146.63;5026696;28;20417;-63
2021/04/02 07:11:19;;;;;;;3.90;1.75;;;;;;;18.43;60.20;103154.47;5039991;28;20150;-63
2021/04/02 07:13:49;;;;;;;4.10;1.55;;;;;;;18.41;60.33;103157.28;5040443;28;20029;-68
2021/04/02 07:16:17;;;;;;;7.25;2.00;;;;;;;18.42;60.36;103156.28;5037938;28;20384;-70
2021/04/02 07:18:43;;;;;;;4.93;1.80;;;;;;;18.44;60.61;103157.00;5013190;28;20061;-70
2021/04/02 07:21:09;;;;;;;3.22;1.67;;;;;;;18.43;60.52;103160.63;5044644;28;20456;-70
2021/04/02 07:23:35;;;;;;;6.47;1.92;;;;;;;18.45;60.99;103165.81;5025740;28;20149;-69
2021/04/02 07:26:01;;;;;;;3.38;1.83;;;;;;;18.47;60.79;103161.25;5044163;28;20053;-72
2021/04/02 07:28:28;;;;;;;4.22;1.65;;;;;;;18.47;60.88;103170.06;5025437;28;20029;-71
2021/04/02 07:30:54;;;;;;;4.40;1.80;;;;;;;18.49;60.76;103175.22;5026000;28;20037;-69
2021/04/02 07:33:21;;;;;;;3.53;1.50;;;;;;;18.49;60.68;103165.44;5040319;28;20456;-73
2021/04/02 07:36:01;;;;;;;4.07;1.42;;;;;;;18.48;60.58;103169.06;5026764;28;20037;-73
2021/04/02 07:38:29;;;;;;;4.97;1.40;;;;;;;18.51;60.62;103168.81;5043562;28;20037;-70
2021/04/02 07:40:55;;;;;;;3.97;1.60;;;;;;;18.52;60.75;103175.81;5044056;28;20059;-68
2021/04/02 07:43:22;;;;;;;4.53;1.60;;;;;;;18.52;60.87;103175.81;5046447;28;20071;-71
2021/04/02 07:45:53;;;;;;;4.05;1.63;;;;;;;18.53;60.96;103172.16;5031551;28;20033;-71
2021/04/02 07:48:24;;;;;;;3.72;1.63;;;;;;;18.52;61.27;103172.31;5041908;28;20045;-69
2021/04/02 07:50:55;;;;;;;3.83;1.63;;;;;;;18.52;61.12;103175.81;5041930;28;20037;-70
2021/04/02 07:53:23;;;;;;;5.05;1.20;;;;;;;18.52;60.98;103186.44;5043549;28;20049;-74
2021/04/02 07:55:54;;;;;;;7.28;1.50;;;;;;;18.53;61.29;103185.47;5043821;28;20040;-69
2021/04/02 07:58:27;;;;;;;5.22;1.40;;;;;;;18.54;61.32;103183.63;5026484;28;20212;-70
2021/04/02 08:00:58;;;;;;;7.90;1.95;;;;;;;18.55;61.29;103185.31;5027365;28;20040;-69
2021/04/02 08:03:25;;;;;;;51.83;31.52;;;;;;;18.55;61.42;103180.84;5009641;28;20344;-68
2021/04/02 08:05:54;;;;;;;19.70;11.48;;;;;;;18.56;61.30;103179.03;5040611;28;20041;-72
2021/04/02 08:08:19;;;;;;;26.88;18.35;;;;;;;18.56;61.38;103179.88;5020790;28;20044;-71
2021/04/02 08:11:09;;;;;;;41.95;29.77;;;;;;;18.53;61.32;103188.13;5038164;28;20033;-67
2021/04/02 08:13:58;;;;;;;38.40;26.20;;;;;;;18.53;61.51;103190.78;5037772;28;20033;-69
2021/04/02 08:16:33;;;;;;;37.60;25.38;;;;;;;18.54;60.91;103194.28;5016733;28;20056;-67
2021/04/02 08:19:09;;;;;;;53.97;27.88;;;;;;;18.52;60.85;103190.91;5035914;28;20082;-70
2021/04/02 08:21:41;;;;;;;136.68;56.50;;;;;;;18.54;60.82;103202.25;5014675;28;20047;-68
2021/04/02 08:24:08;;;;;;;364.60;154.18;;;;;;;18.53;60.62;103206.72;5043373;28;20033;-69
2021/04/02 08:26:35;;;;;;;363.10;150.27;;;;;;;18.53;60.50;103204.06;5039985;28;20036;-70
2021/04/02 08:29:06;;;;;;;340.20;138.10;;;;;;;18.53;60.27;103197.91;5040940;28;20048;-75
2021/04/02 08:31:34;;;;;;;288.27;122.95;;;;;;;18.54;59.85;103207.56;5022903;28;20341;-73
2021/04/02 08:34:00;;;;;;;297.88;124.82;;;;;;;18.53;59.97;103204.06;5041942;28;20036;-73
2021/04/02 08:36:27;;;;;;;283.13;120.40;;;;;;;18.53;59.90;103204.06;5024488;28;20037;-74
2021/04/02 08:38:54;;;;;;;248.25;106.50;;;;;;;18.53;59.44;103217.34;5042345;28;20116;-73
2021/04/02 08:41:21;;;;;;;235.05;99.90;;;;;;;18.53;59.12;103216.50;5009447;28;20052;-70
2021/04/02 08:43:48;;;;;;;223.32;93.13;;;;;;;18.51;58.79;103215.81;5042204;28;20075;-71
2021/04/02 08:46:15;;;;;;;209.50;88.05;;;;;;;18.51;59.15;103215.81;5023711;28;20033;-64
2021/04/02 08:48:43;;;;;;;189.98;81.50;;;;;;;18.51;58.65;103216.66;5045539;28;20052;-64
2021/04/02 08:51:08;;;;;;;158.00;62.08;;;;;;;18.50;58.50;103228.25;5011988;28;20056;-63
2021/04/02 08:53:40;;;;;;;162.68;68.55;;;;;;;18.49;58.55;103229.22;5040320;28;20041;-67
2021/04/02 08:56:06;;;;;;;136.98;58.67;;;;;;;18.52;58.92;103228.13;5046770;28;20032;-65
2021/04/02 08:58:31;;;;;;;129.35;57.03;;;;;;;18.52;58.99;103228.97;5029933;28;20765;-64
2021/04/02 09:00:57;;;;;;;121.40;51.50;;;;;;;18.53;59.24;103229.81;5028473;28;20037;-64
2021/04/02 09:03:23;;;;;;;119.25;51.58;;;;;;;18.52;59.16;103234.28;5028743;28;20033;-64
2021/04/02 09:05:49;;;;;;;103.57;45.88;;;;;;;18.54;58.88;103234.16;5028780;28;20033;-64
2021/04/02 09:08:14;;;;;;;98.90;42.03;;;;;;;18.54;59.23;103242.13;5045404;28;20037;-64
2021/04/02 09:10:40;;;;;;;100.07;43.67;;;;;;;18.56;59.04;103248.16;5020904;28;20061;-63
2021/04/02 09:13:06;;;;;;;89.43;39.80;;;;;;;18.56;58.61;103250.81;5040406;28;20075;-63
2021/04/02 09:15:35;;;;;;;92.43;40.15;;;;;;;18.56;58.82;103251.66;5043175;28;20060;-64
2021/04/02 09:18:18;;;;;;;76.82;36.88;;;;;;;18.54;58.88;103253.59;5025983;28;20042;-63
2021/04/02 09:20:44;;;;;;;79.15;34.90;;;;;;;18.58;58.66;103248.00;5045606;28;20138;-64
2021/04/02 09:23:10;;;;;;;79.57;33.33;;;;;;;18.56;58.98;103248.97;5045976;28;20041;-63
2021/04/02 09:25:47;;;;;;;70.05;30.63;;;;;;;18.55;58.47;103259.75;5044476;28;20814;-64
2021/04/02 09:28:13;;;;;;;67.35;30.23;;;;;;;18.55;58.74;103257.09;5044935;28;20713;-66
2021/04/02 09:30:38;;;;;;;64.60;28.02;;;;;;;18.56;58.48;103261.44;5045056;28;20132;-63
2021/04/02 09:33:05;;;;;;;69.15;31.08;;;;;;;18.56;58.74;103264.94;5003817;28;20033;-64
2021/04/02 09:35:31;;;;;;;66.75;28.35;;;;;;;18.55;58.53;103255.28;5040412;28;20037;-67
2021/04/02 09:37:57;;;;;;;61.17;26.95;;;;;;;18.56;58.34;103256.97;5022291;28;20503;-73
2021/04/02 09:40:28;;;;;;;65.68;27.65;;;;;;;18.55;58.74;103262.41;5044527;28;20040;-67
2021/04/02 09:42:54;;;;;;;60.22;25.10;;;;;;;18.57;58.84;103268.44;5032693;28;20741;-62
2021/04/02 09:45:20;;;;;;;59.55;27.35;;;;;;;18.59;59.22;103269.16;5021509;28;20075;-64
2021/04/02 09:47:48;;;;;;;60.25;26.05;;;;;;;18.60;59.71;103273.47;5046351;28;20084;-68
2021/04/02 09:50:16;;;;;;;58.05;23.25;;;;;;;18.59;59.70;103270.97;5045710;28;20029;-71
2021/04/02 09:52:43;;;;;;;64.47;26.08;;;;;;;18.59;60.01;103265.66;5044552;28;20029;-64
2021/04/02 09:55:10;;;;;;;62.33;25.00;;;;;;;18.60;60.03;103272.66;5045079;28;20024;-64
2021/04/02 09:57:36;;;;;;;43.08;16.85;;;;;;;18.59;59.24;103276.28;5045910;28;20119;-64
2021/04/02 10:00:05;;;;;;;33.40;14.13;;;;;;;18.55;58.66;103276.53;5044257;28;20447;-64
2021/04/02 10:02:31;;;;;;;27.60;10.57;;;;;;;18.50;57.51;103276.09;5029825;28;20562;-64
2021/04/02 10:04:57;;;;;;;24.48;10.48;;;;;;;18.45;56.60;103277.44;5043804;28;20049;-64
2021/04/02 10:07:22;;;;;;;23.52;9.25;;;;;;;18.39;56.04;103284.13;5037680;28;20029;-64
2021/04/02 10:09:48;;;;;;;22.38;6.72;;;;;;;18.35;55.59;103296.00;5035239;28;20506;-64
2021/04/02 10:12:14;;;;;;;16.23;5.95;;;;;;;18.30;54.68;103298.16;5034303;28;20038;-64
2021/04/02 10:14:39;;;;;;;15.18;5.07;;;;;;;18.25;53.85;103298.56;5044969;28;20515;-64
2021/04/02 10:17:10;;;;;;;11.38;4.15;;;;;;;18.19;53.38;103292.94;5033141;28;20038;-64
2021/04/02 10:19:37;;;;;;;11.25;3.65;;;;;;;18.14;53.16;103305.72;5033622;28;20103;-64
2021/04/02 10:22:03;;;;;;;13.38;4.13;;;;;;;18.08;52.51;103311.56;5019701;28;20104;-64
2021/04/02 10:24:28;;;;;;;8.32;3.50;;;;;;;18.03;51.95;103309.28;5039488;28;20101;-64
2021/04/02 10:26:55;;;;;;;10.32;3.42;;;;;;;17.98;51.96;103307.94;5036305;28;20494;-64
2021/04/02 10:29:21;;;;;;;9.65;3.28;;;;;;;17.94;51.48;103310.88;5040112;28;20045;-64
2021/04/02 10:31:46;;;;;;;8.82;2.80;;;;;;;17.91;51.27;103316.44;5050071;28;20518;-63
2021/04/02 10:34:12;;;;;;;8.80;2.70;;;;;;;17.88;50.98;103311.38;5049032;28;20056;-64
2021/04/02 10:36:38;;;;;;;10.70;2.90;;;;;;;17.87;50.81;103311.50;5049675;28;20049;-64
2021/04/02 10:39:03;;;;;;;6.65;2.17;;;;;;;17.84;50.75;103314.41;5046620;28;20029;-64
2021/04/02 10:41:29;;;;;;;4.47;1.85;;;;;;;17.79;50.60;103309.44;5030469;28;20540;-64
2021/04/02 10:43:54;;;;;;;8.13;2.45;;;;;;;17.76;50.53;103312.38;5030212;28;20037;-64
2021/04/02 10:46:20;;;;;;;8.05;2.42;;;;;;;17.73;49.81;103325.88;5014731;28;20033;-64
2021/04/02 10:48:45;;;;;;;5.63;2.30;;;;;;;17.71;49.98;103327.81;5031304;28;20044;-64
2021/04/02 10:51:11;;;;;;;4.55;1.60;;;;;;;17.67;49.57;103329.00;5029837;28;20095;-64
2021/04/02 10:53:36;;;;;;;6.03;1.58;;;;;;;17.64;49.52;103331.91;5048206;28;20036;-64
2021/04/02 10:56:03;;;;;;;4.75;1.73;;;;;;;17.61;49.21;103335.63;5047933;28;20060;-64
2021/04/02 10:58:29;;;;;;;6.05;1.92;;;;;;;17.60;48.86;103327.81;5048776;28;20095;-64
2021/04/02 11:00:55;;;;;;;5.47;1.42;;;;;;;17.56;48.87;103337.81;5048165;28;20037;-63
2021/04/02 11:03:20;;;;;;;6.28;1.30;;;;;;;17.53;48.82;103323.97;5043420;28;20056;-63
2021/04/02 11:05:46;;;;;;;5.38;1.52;;;;;;;17.51;48.58;103333.81;5036857;28;20446;-64
2021/04/02 11:08:12;;;;;;;3.80;1.70;;;;;;;17.47;48.38;103329.75;5047026;28;20037;-64
2021/04/02 11:10:37;;;;;;;5.82;1.75;;;;;;;17.44;48.37;103329.97;5049232;28;20029;-63
2021/04/02 11:13:03;;;;;;;4.82;1.20;;;;;;;17.42;48.24;103334.56;5049144;28;20078;-64
2021/04/02 11:15:29;;;;;;;7.32;1.88;;;;;;;17.39;47.96;103326.88;5046423;28;20060;-66
2021/04/02 11:17:55;;;;;;;7.80;1.38;;;;;;;17.37;47.85;103324.34;5049141;28;20040;-64
2021/04/02 11:20:25;;;;;;;4.50;1.35;;;;;;;17.35;47.89;103326.25;5047523;28;20033;-64
2021/04/02 11:22:51;;;;;;;7.05;1.23;;;;;;;17.34;47.73;103329.84;5048963;28;20044;-63
2021/04/02 11:25:17;;;;;;;3.55;1.10;;;;;;;17.31;47.88;103333.59;5046605;28;20415;-64